createdAt,value
2019-02-06T00:01:41.967Z,101036.77
2019-02-06T00:04:15.375Z,101028.19
2019-02-06T00:06:45.559Z,101033.63
2019-02-06T00:09:17.599Z,101037.95
2019-02-06T00:11:48.478Z,101031.19
2019-02-06T00:14:19.346Z,101034.69
2019-02-06T00:16:50.444Z,101030.14
2019-02-06T00:19:21.666Z,101031.75
2019-02-06T00:21:52.538Z,101033.93
2019-02-06T00:24:23.537Z,101023.28
2019-02-06T00:26:54.410Z,101032.23
2019-02-06T00:29:25.433Z,101021.20
2019-02-06T00:31:56.538Z,101027.22
2019-02-06T00:34:27.561Z,101029.86
2019-02-06T00:36:58.379Z,101035.41
2019-02-06T00:39:29.636Z,101034.59
2019-02-06T00:42:00.429Z,101030.67
2019-02-06T00:44:32.069Z,101028.48
2019-02-06T00:47:03.147Z,101036.27
2019-02-06T00:49:34.149Z,101035.36
2019-02-06T00:52:05.655Z,101034.55
2019-02-06T00:54:36.662Z,101031.05
2019-02-06T00:57:07.534Z,101029.77
2019-02-06T00:59:38.386Z,101028.59
2019-02-06T01:02:09.738Z,101027.06
2019-02-06T01:04:40.660Z,101022.52
2019-02-06T01:07:11.792Z,101017.88
2019-02-06T01:09:42.874Z,101010.08
2019-02-06T01:12:15.224Z,101018.69
2019-02-06T01:14:46.303Z,101016.13
2019-02-06T01:17:17.329Z,101018.69
2019-02-06T01:19:48.177Z,101020.81
2019-02-06T01:22:19.042Z,101028.95
2019-02-06T01:24:50.158Z,101019.06
2019-02-06T01:27:21.894Z,101021.44
2019-02-06T01:29:53.153Z,101021.09
2019-02-06T01:32:25.241Z,101026.64
2019-02-06T01:34:56.342Z,101027.16
2019-02-06T01:37:27.130Z,101025.97
2019-02-06T01:39:58.072Z,101022.98
2019-02-06T01:42:29.124Z,101017.58
2019-02-06T01:45:00.319Z,101022.61
2019-02-06T01:47:31.400Z,101013.78
2019-02-06T01:50:02.474Z,101019.71
2019-02-06T01:52:34.649Z,101016.34
2019-02-06T01:55:05.996Z,101017.50
2019-02-06T01:57:37.000Z,101018.08
2019-02-06T02:00:14.530Z,101013.57
2019-02-06T02:02:45.877Z,101016.51
2019-02-06T02:05:19.073Z,101008.12
2019-02-06T02:07:51.376Z,101008.66
2019-02-06T02:10:22.480Z,101015.17
2019-02-06T02:12:53.353Z,101012.24
2019-02-06T02:15:24.197Z,101011.77
2019-02-06T02:17:55.606Z,101004.52
2019-02-06T02:20:26.698Z,101012.47
2019-02-06T02:22:57.929Z,101019.94
2019-02-06T02:25:28.863Z,101016.67
2019-02-06T02:28:00.604Z,101017.06
2019-02-06T02:30:38.473Z,101015.94
2019-02-06T02:33:09.415Z,101010.69
2019-02-06T02:35:40.597Z,101011.34
2019-02-06T02:38:12.043Z,101008.36
2019-02-06T02:40:42.924Z,101010.96
2019-02-06T02:43:13.988Z,101009.78
2019-02-06T02:45:45.978Z,101006.50
2019-02-06T02:48:17.113Z,101005.31
2019-02-06T02:50:48.001Z,100997.78
2019-02-06T02:53:19.211Z,100995.77
2019-02-06T02:55:50.310Z,100997.17
2019-02-06T02:58:21.428Z,101000.61
2019-02-06T03:01:05.525Z,100996.43
2019-02-06T03:03:40.179Z,100996.50
2019-02-06T03:06:11.634Z,100997.81
2019-02-06T03:08:42.867Z,100992.28
2019-02-06T03:11:15.086Z,100994.13
2019-02-06T03:13:46.213Z,100981.37
2019-02-06T03:16:17.426Z,100985.73
2019-02-06T03:18:48.717Z,100989.16
2019-02-06T03:21:19.820Z,100983.53
2019-02-06T03:23:50.875Z,100983.98
2019-02-06T03:26:21.949Z,100987.03
2019-02-06T03:28:53.183Z,100984.95
2019-02-06T03:31:24.477Z,100982.45
2019-02-06T03:33:55.240Z,100979.12
2019-02-06T03:36:26.411Z,100979.12
2019-02-06T03:38:57.471Z,100982.55
2019-02-06T03:41:28.396Z,100981.25
2019-02-06T03:43:59.805Z,100980.36
2019-02-06T03:46:31.235Z,100978.63
2019-02-06T03:49:02.287Z,100978.66
2019-02-06T03:51:33.638Z,100976.56
2019-02-06T03:54:05.071Z,100970.64
2019-02-06T03:56:36.186Z,100968.13
2019-02-06T03:59:08.499Z,100970.67
2019-02-06T04:01:39.366Z,100971.11
2019-02-06T04:04:10.436Z,100966.42
2019-02-06T04:06:52.723Z,100962.92
2019-02-06T04:09:13.758Z,100968.06
2019-02-06T04:11:44.963Z,100964.66
2019-02-06T04:14:15.741Z,100967.61
2019-02-06T04:16:47.050Z,100966.33
2019-02-06T04:19:17.906Z,100964.20
2019-02-06T04:21:48.916Z,100969.70
2019-02-06T04:24:19.985Z,100960.87
2019-02-06T04:26:51.098Z,100966.42
2019-02-06T04:29:22.436Z,100959.20
2019-02-06T04:31:53.523Z,100967.22
2019-02-06T04:34:24.454Z,100971.92
2019-02-06T04:37:06.214Z,100972.31
2019-02-06T04:39:27.691Z,100967.25
2019-02-06T04:41:58.615Z,100965.87
2019-02-06T04:44:29.747Z,100962.89
2019-02-06T04:47:00.520Z,100965.94
2019-02-06T04:49:31.618Z,100967.25
2019-02-06T04:52:03.269Z,100969.83
2019-02-06T04:54:34.053Z,100973.98
2019-02-06T04:57:05.117Z,100970.70
2019-02-06T04:59:35.884Z,100965.12
2019-02-06T05:02:07.013Z,100963.02
2019-02-06T05:04:37.881Z,100960.47
2019-02-06T05:07:18.668Z,100961.81
2019-02-06T05:09:41.640Z,100962.27
2019-02-06T05:12:12.567Z,100961.45
2019-02-06T05:14:43.487Z,100961.53
2019-02-06T05:17:14.468Z,100961.53
2019-02-06T05:19:45.795Z,100964.91
2019-02-06T05:22:16.637Z,100961.53
2019-02-06T05:24:47.640Z,100969.67
2019-02-06T05:27:18.628Z,100975.98
2019-02-06T05:29:49.404Z,100979.05
2019-02-06T05:32:20.874Z,100981.17
2019-02-06T05:34:51.668Z,100974.77
2019-02-06T05:37:31.216Z,100975.63
2019-02-06T05:39:55.147Z,100977.74
2019-02-06T05:42:26.297Z,100981.17
2019-02-06T05:44:57.201Z,100983.72
2019-02-06T05:47:28.213Z,100976.41
2019-02-06T05:49:59.223Z,100982.00
2019-02-06T05:52:29.986Z,100972.22
2019-02-06T05:55:04.290Z,100973.55
2019-02-06T05:57:33.227Z,100972.27
2019-02-06T06:00:07.384Z,100971.81
2019-02-06T06:02:38.492Z,100962.47
2019-02-06T06:05:09.775Z,100968.45
2019-02-06T06:07:45.241Z,100958.25
2019-02-06T06:10:14.440Z,100956.97
2019-02-06T06:12:45.780Z,100965.11
2019-02-06T06:15:17.906Z,100969.72
2019-02-06T06:17:48.933Z,100968.02
2019-02-06T06:20:19.858Z,100964.14
2019-02-06T06:22:50.637Z,100958.67
2019-02-06T06:25:21.924Z,100962.52
2019-02-06T06:27:53.016Z,100959.95
2019-02-06T06:30:23.860Z,100953.97
2019-02-06T06:32:54.662Z,100950.91
2019-02-06T06:35:25.499Z,100946.77
2019-02-06T06:38:00.534Z,100950.55
2019-02-06T06:40:29.603Z,100952.67
2019-02-06T06:43:00.742Z,100947.20
2019-02-06T06:45:31.882Z,100951.45
2019-02-06T06:48:02.986Z,100962.47
2019-02-06T06:50:33.807Z,100951.42
2019-02-06T06:53:04.656Z,100954.77
2019-02-06T06:55:36.144Z,100960.32
2019-02-06T06:58:07.130Z,100960.30
2019-02-06T07:00:38.311Z,100963.23
2019-02-06T07:03:09.165Z,100968.34
2019-02-06T07:05:39.933Z,100965.33
2019-02-06T07:08:13.362Z,100967.00
2019-02-06T07:10:43.286Z,100968.59
2019-02-06T07:13:14.432Z,100975.33
2019-02-06T07:15:46.310Z,100979.09
2019-02-06T07:18:17.542Z,100977.84
2019-02-06T07:20:48.626Z,100985.44
2019-02-06T07:23:20.152Z,100984.12
2019-02-06T07:25:51.153Z,100991.78
2019-02-06T07:28:22.124Z,100998.84
2019-02-06T07:30:52.896Z,100998.42
2019-02-06T07:33:24.334Z,101000.02
2019-02-06T07:35:55.396Z,100990.66
2019-02-06T07:38:26.253Z,100994.02
2019-02-06T07:40:57.023Z,100997.74
2019-02-06T07:43:28.165Z,101004.33
2019-02-06T07:45:59.312Z,101005.52
2019-02-06T07:48:30.119Z,101004.59
2019-02-06T07:51:00.955Z,101006.50
2019-02-06T07:53:31.997Z,101007.73
2019-02-06T07:56:02.913Z,101008.03
2019-02-06T07:58:34.008Z,100999.75
2019-02-06T08:01:05.600Z,101006.52
2019-02-06T08:03:36.470Z,101006.09
2019-02-06T08:06:07.953Z,101000.41
2019-02-06T08:08:38.996Z,101003.66
2019-02-06T08:11:09.824Z,100997.59
2019-02-06T08:13:41.209Z,100995.69
2019-02-06T08:16:12.279Z,101000.10
2019-02-06T08:18:43.132Z,100998.27
2019-02-06T08:21:14.122Z,101001.17
2019-02-06T08:23:44.976Z,101005.63
2019-02-06T08:26:19.194Z,101000.31
2019-02-06T08:28:50.305Z,100999.34
2019-02-06T08:31:21.320Z,101001.91
2019-02-06T08:33:52.118Z,101000.47
2019-02-06T08:36:23.101Z,100998.38
2019-02-06T08:38:55.648Z,101000.38
2019-02-06T08:41:27.450Z,100999.39
2019-02-06T08:44:01.625Z,101003.34
2019-02-06T08:46:31.382Z,101004.31
2019-02-06T08:49:02.452Z,100998.78
2019-02-06T08:51:33.324Z,101001.10
2019-02-06T08:54:04.184Z,100999.05
2019-02-06T08:56:35.100Z,101001.98
2019-02-06T08:59:06.186Z,100996.94
2019-02-06T09:01:37.347Z,101000.30
2019-02-06T09:04:08.422Z,101001.16
2019-02-06T09:06:39.526Z,100998.48
2019-02-06T09:09:11.587Z,101006.00
2019-02-06T09:11:42.831Z,101007.80
2019-02-06T09:14:13.767Z,101005.59
2019-02-06T09:16:44.609Z,101005.50
2019-02-06T09:19:15.780Z,101001.76
2019-02-06T09:21:46.542Z,101004.88
2019-02-06T09:24:17.713Z,101002.52
2019-02-06T09:26:48.788Z,101006.70
2019-02-06T09:29:19.783Z,101005.07
2019-02-06T09:31:50.561Z,101007.11
2019-02-06T09:34:21.363Z,101004.05
2019-02-06T09:36:52.184Z,100994.66
2019-02-06T09:39:23.152Z,101004.06
2019-02-06T09:41:54.444Z,100996.43
2019-02-06T09:44:25.504Z,100999.08
2019-02-06T09:46:57.105Z,100996.77
2019-02-06T09:49:28.129Z,100990.42
2019-02-06T09:51:59.117Z,100987.52
2019-02-06T09:54:30.167Z,100991.87
2019-02-06T09:57:01.198Z,100990.88
2019-02-06T09:59:31.974Z,100987.03
2019-02-06T10:02:02.745Z,100989.30
2019-02-06T10:04:33.604Z,100992.92
2019-02-06T10:07:04.730Z,100994.27
2019-02-06T10:09:35.821Z,100996.34
2019-02-06T10:12:06.891Z,100994.80
2019-02-06T10:14:38.185Z,100990.81
2019-02-06T10:17:09.443Z,100982.36
2019-02-06T10:19:42.441Z,100988.70
2019-02-06T10:22:13.555Z,100991.59
2019-02-06T10:24:44.339Z,100990.46
2019-02-06T10:27:15.224Z,100980.59
2019-02-06T10:29:46.295Z,100982.25
2019-02-06T10:32:17.297Z,100981.78
2019-02-06T10:34:48.308Z,100979.21
2019-02-06T10:37:19.079Z,100984.35
2019-02-06T10:39:49.960Z,100975.38
2019-02-06T10:42:20.801Z,100973.39
2019-02-06T10:44:51.897Z,100968.06
2019-02-06T10:47:22.667Z,100967.41
2019-02-06T10:49:53.695Z,100970.48
2019-02-06T10:52:24.832Z,100961.02
2019-02-06T10:54:55.866Z,100963.46
2019-02-06T10:57:26.902Z,100955.37
2019-02-06T10:59:58.048Z,100953.73
2019-02-06T11:02:28.832Z,100948.64
2019-02-06T11:04:59.864Z,100947.33
2019-02-06T11:07:31.203Z,100936.18
2019-02-06T11:10:02.000Z,100929.51
2019-02-06T11:12:33.564Z,100923.63
2019-02-06T11:15:05.536Z,100916.10
2019-02-06T11:17:36.616Z,100908.67
2019-02-06T11:20:11.007Z,100902.42
2019-02-06T11:22:42.173Z,100904.59
2019-02-06T11:25:13.267Z,100894.14
2019-02-06T11:27:44.635Z,100889.35
2019-02-06T11:30:18.627Z,100884.68
2019-02-06T11:32:49.743Z,100878.41
2019-02-06T11:35:20.767Z,100875.61
2019-02-06T11:37:51.612Z,100870.13
2019-02-06T11:40:23.841Z,100871.55
2019-02-06T11:42:54.915Z,100864.70
2019-02-06T11:45:30.539Z,100860.89
2019-02-06T11:48:01.380Z,100857.45
2019-02-06T11:50:38.235Z,100860.25
2019-02-06T11:53:14.472Z,100855.17
2019-02-06T11:55:45.613Z,100853.31
2019-02-06T11:58:17.822Z,100852.72
2019-02-06T12:01:20.110Z,100847.63
2019-02-06T12:03:51.250Z,100844.58
2019-02-06T12:06:22.100Z,100839.58
2019-02-06T12:08:53.120Z,100842.06
2019-02-06T12:11:23.977Z,100838.89
2019-02-06T12:13:55.035Z,100833.63
2019-02-06T12:16:25.924Z,100829.42
2019-02-06T12:18:57.388Z,100828.12
2019-02-06T12:21:28.532Z,100816.83
2019-02-06T12:23:59.576Z,100810.85
2019-02-06T12:26:30.461Z,100802.63
2019-02-06T12:29:01.491Z,100790.69
2019-02-06T12:31:32.341Z,100791.14
2019-02-06T12:34:03.176Z,100784.81
2019-02-06T12:36:36.870Z,100782.63
2019-02-06T12:39:10.132Z,100782.64
2019-02-06T12:41:41.092Z,100782.00
2019-02-06T12:44:11.848Z,100775.73
2019-02-06T12:46:43.150Z,100772.95
2019-02-06T12:49:14.602Z,100771.67
2019-02-06T12:51:45.536Z,100763.28
2019-02-06T12:54:16.705Z,100756.16
2019-02-06T12:56:47.574Z,100757.12
2019-02-06T12:59:19.522Z,100756.56
2019-02-06T13:01:50.415Z,100752.28
2019-02-06T13:04:21.473Z,100746.95
2019-02-06T13:06:52.459Z,100744.39
2019-02-06T13:09:23.522Z,100741.67
2019-02-06T13:11:54.305Z,100739.59
2019-02-06T13:14:25.548Z,100732.09
2019-02-06T13:16:56.271Z,100723.84
2019-02-06T13:19:27.250Z,100719.02
2019-02-06T13:21:58.332Z,100717.28
2019-02-06T13:24:29.164Z,100711.45
2019-02-06T13:27:00.123Z,100710.28
2019-02-06T13:29:31.112Z,100714.41
2019-02-06T13:32:02.002Z,100711.21
2019-02-06T13:34:33.120Z,100712.15
2019-02-06T13:37:04.209Z,100711.59
2019-02-06T13:39:35.518Z,100703.35
2019-02-06T13:42:06.871Z,100704.20
2019-02-06T13:44:37.948Z,100703.64
2019-02-06T13:47:09.086Z,100703.48
2019-02-06T13:49:39.887Z,100696.58
2019-02-06T13:52:11.215Z,100692.30
2019-02-06T13:54:42.479Z,100697.89
2019-02-06T13:57:13.265Z,100690.08
2019-02-06T13:59:44.018Z,100691.52
2019-02-06T14:02:14.950Z,100688.48
2019-02-06T14:04:45.786Z,100684.49
2019-02-06T14:07:16.655Z,100679.21
2019-02-06T14:09:48.156Z,100674.33
2019-02-06T14:12:19.199Z,100669.75
2019-02-06T14:14:50.305Z,100662.56
2019-02-06T14:17:21.628Z,100666.74
2019-02-06T14:19:52.469Z,100653.91
2019-02-06T14:22:23.836Z,100649.25
2019-02-06T14:25:00.308Z,100650.87
2019-02-06T14:27:49.126Z,100650.87
2019-02-06T14:30:29.711Z,100634.09
2019-02-06T14:33:44.920Z,100628.48
2019-02-06T14:37:06.490Z,100621.52
2019-02-06T14:39:48.547Z,100616.83
2019-02-06T14:42:36.138Z,100618.58
2019-02-06T14:45:43.919Z,100613.72
2019-02-06T14:48:57.383Z,100612.83
2019-02-06T14:52:17.575Z,100611.98
2019-02-06T14:55:22.754Z,100603.88
2019-02-06T14:58:33.485Z,100605.92
2019-02-06T15:01:25.774Z,100595.33
2019-02-06T15:04:43.896Z,100592.84
2019-02-06T15:07:33.979Z,100592.39
2019-02-06T15:10:54.230Z,100588.66
2019-02-06T15:14:00.847Z,100582.78
2019-02-06T15:17:23.989Z,100577.76
2019-02-06T15:20:19.496Z,100581.09
2019-02-06T15:23:40.131Z,100575.09
2019-02-06T15:26:29.263Z,100563.00
2019-02-06T15:29:38.151Z,100558.71
2019-02-06T15:32:46.807Z,100551.92
2019-02-06T15:35:53.635Z,100544.20
2019-02-06T15:39:05.805Z,100549.92
2019-02-06T15:41:55.576Z,100551.17
2019-02-06T15:44:49.364Z,100548.48
2019-02-06T15:47:58.289Z,100551.52
2019-02-06T15:50:57.158Z,100549.52
2019-02-06T15:54:11.129Z,100551.33
2019-02-06T15:57:22.554Z,100543.72
2019-02-06T16:00:46.799Z,100545.30
2019-02-06T16:03:58.417Z,100539.66
2019-02-06T16:07:16.324Z,100539.63
2019-02-06T16:10:28.064Z,100542.05
2019-02-06T16:13:24.498Z,100528.46
2019-02-06T16:16:30.844Z,100534.36
2019-02-06T16:19:22.208Z,100532.98
2019-02-06T16:22:24.207Z,100526.33
2019-02-06T16:25:20.984Z,100538.66
2019-02-06T16:28:01.017Z,100546.00
2019-02-06T16:31:22.548Z,100537.64
2019-02-06T16:34:43.676Z,100538.23
2019-02-06T16:37:52.924Z,100540.27
2019-02-06T16:41:01.723Z,100538.00
2019-02-06T16:43:48.640Z,100537.44
2019-02-06T16:46:34.747Z,100535.50
2019-02-06T16:49:44.142Z,100540.64
2019-02-06T16:53:00.394Z,100537.14
2019-02-06T16:56:06.863Z,100530.19
2019-02-06T16:59:11.484Z,100529.30
2019-02-06T17:02:06.639Z,100524.56
2019-02-06T17:05:01.496Z,100528.00
2019-02-06T17:08:14.516Z,100521.30
2019-02-06T17:11:06.702Z,100514.72
2019-02-06T17:14:14.368Z,100516.88
2019-02-06T17:17:19.962Z,100518.83
2019-02-06T17:20:19.111Z,100512.18
2019-02-06T17:23:11.963Z,100517.34
2019-02-06T17:26:22.392Z,100513.41
2019-02-06T17:29:12.175Z,100513.66
2019-02-06T17:31:59.647Z,100512.17
2019-02-06T17:34:46.390Z,100516.20
2019-02-06T17:37:55.989Z,100521.56
2019-02-06T17:40:49.771Z,100523.50
2019-02-06T17:43:59.059Z,100528.03
2019-02-06T17:47:01.680Z,100528.27
2019-02-06T17:50:06.235Z,100524.02
2019-02-06T17:53:19.915Z,100518.72
2019-02-06T17:55:51.929Z,100517.03
2019-02-06T17:58:22.979Z,100512.50
2019-02-06T18:00:57.640Z,100519.89
2019-02-06T18:03:31.487Z,100504.69
2019-02-06T18:06:02.803Z,100497.99
2019-02-06T18:08:33.879Z,100492.89
2019-02-06T18:11:05.038Z,100492.20
2019-02-06T18:13:36.531Z,100492.20
2019-02-06T18:16:07.752Z,100492.58
2019-02-06T18:18:38.588Z,100491.90
2019-02-06T18:21:09.577Z,100492.62
2019-02-06T18:23:40.903Z,100485.61
2019-02-06T18:26:12.333Z,100484.82
2019-02-06T18:28:43.216Z,100482.92
2019-02-06T18:31:14.586Z,100481.50
2019-02-06T18:33:45.559Z,100474.36
2019-02-06T18:36:16.635Z,100478.67
2019-02-06T18:38:49.719Z,100472.52
2019-02-06T18:41:20.914Z,100468.17
2019-02-06T18:43:52.072Z,100475.94
2019-02-06T18:46:23.198Z,100479.58
2019-02-06T18:48:54.121Z,100477.63
2019-02-06T18:51:25.309Z,100468.94
2019-02-06T18:53:56.384Z,100458.80
2019-02-06T18:56:27.421Z,100448.65
2019-02-06T18:58:58.417Z,100444.30
2019-02-06T19:01:30.007Z,100447.83
2019-02-06T19:04:01.476Z,100447.37
2019-02-06T19:06:32.526Z,100444.66
2019-02-06T19:09:05.775Z,100446.88
2019-02-06T19:11:37.968Z,100441.16
2019-02-06T19:14:09.488Z,100433.41
2019-02-06T19:16:40.880Z,100424.63
2019-02-06T19:19:11.920Z,100423.66
2019-02-06T19:21:42.734Z,100425.81
2019-02-06T19:24:13.570Z,100421.80
2019-02-06T19:26:44.699Z,100423.08
2019-02-06T19:29:15.946Z,100428.28
2019-02-06T19:31:47.436Z,100419.00
2019-02-06T19:34:18.510Z,100414.71
2019-02-06T19:36:49.746Z,100413.73
2019-02-06T19:39:20.592Z,100417.79
2019-02-06T19:41:51.439Z,100421.54
2019-02-06T19:44:22.330Z,100412.52
2019-02-06T19:46:53.596Z,100398.19
2019-02-06T19:49:24.608Z,100388.83
2019-02-06T19:51:56.160Z,100372.95
2019-02-06T19:54:27.177Z,100361.98
2019-02-06T19:56:58.489Z,100354.10
2019-02-06T19:59:29.268Z,100354.73
2019-02-06T20:02:00.427Z,100355.71
2019-02-06T20:04:31.479Z,100346.66
2019-02-06T20:07:03.238Z,100356.58
2019-02-06T20:09:34.579Z,100353.77
2019-02-06T20:12:05.688Z,100353.59
2019-02-06T20:14:36.751Z,100362.84
2019-02-06T20:17:08.067Z,100352.45
2019-02-06T20:19:39.192Z,100347.77
2019-02-06T20:22:10.127Z,100352.20
2019-02-06T20:24:41.398Z,100350.25
2019-02-06T20:27:12.647Z,100347.41
2019-02-06T20:29:43.390Z,100351.45
2019-02-06T20:32:14.402Z,100357.04
2019-02-06T20:34:45.645Z,100350.87
2019-02-06T20:37:16.436Z,100352.25
2019-02-06T20:39:47.299Z,100349.59
2019-02-06T20:42:18.160Z,100360.00
2019-02-06T20:44:48.925Z,100356.75
2019-02-06T20:47:19.948Z,100356.47
2019-02-06T20:49:50.851Z,100353.25
2019-02-06T20:52:23.629Z,100351.89
2019-02-06T20:54:54.710Z,100344.53
2019-02-06T20:57:25.928Z,100348.59
2019-02-06T20:59:57.116Z,100349.31
2019-02-06T21:02:29.547Z,100352.87
2019-02-06T21:05:00.872Z,100351.67
2019-02-06T21:07:31.883Z,100343.60
2019-02-06T21:10:02.957Z,100342.04
2019-02-06T21:12:34.314Z,100340.48
2019-02-06T21:15:05.945Z,100334.16
2019-02-06T21:17:36.940Z,100328.23
2019-02-06T21:20:10.486Z,100331.98
2019-02-06T21:22:41.569Z,100328.23
2019-02-06T21:25:13.850Z,100336.03
2019-02-06T21:27:44.890Z,100339.65
2019-02-06T21:30:20.919Z,100346.19
2019-02-06T21:32:51.796Z,100347.88
2019-02-06T21:35:22.619Z,100351.73
2019-02-06T21:37:53.752Z,100351.64
2019-02-06T21:40:26.437Z,100341.97
2019-02-06T21:42:57.702Z,100335.31
2019-02-06T21:45:28.920Z,100339.72
2019-02-06T21:48:00.069Z,100325.67
2019-02-06T21:50:31.312Z,100322.47
2019-02-06T21:53:02.353Z,100327.16
2019-02-06T21:55:33.292Z,100326.16
2019-02-06T21:58:04.649Z,100326.73
2019-02-06T22:00:39.375Z,100324.08
2019-02-06T22:03:10.975Z,100324.63
2019-02-06T22:05:42.077Z,100316.22
2019-02-06T22:08:13.156Z,100308.56
2019-02-06T22:10:43.974Z,100300.45
2019-02-06T22:13:15.094Z,100284.22
2019-02-06T22:15:46.915Z,100277.20
2019-02-06T22:18:18.001Z,100268.77
2019-02-06T22:20:49.147Z,100266.29
2019-02-06T22:23:20.202Z,100256.64
2019-02-06T22:25:51.079Z,100251.41
2019-02-06T22:28:22.243Z,100248.55
2019-02-06T22:30:53.597Z,100242.52
2019-02-06T22:33:24.485Z,100228.50
2019-02-06T22:35:55.729Z,100224.02
2019-02-06T22:38:26.876Z,100221.05
2019-02-06T22:40:57.993Z,100215.97
2019-02-06T22:43:29.057Z,100220.45
2019-02-06T22:46:00.788Z,100216.19
2019-02-06T22:48:31.827Z,100211.50
2019-02-06T22:51:02.594Z,100216.22
2019-02-06T22:53:33.383Z,100213.92
2019-02-06T22:56:05.059Z,100205.23
2019-02-06T22:58:35.846Z,100223.38
2019-02-06T23:01:22.955Z,100231.68
2019-02-06T23:03:53.881Z,100233.86
2019-02-06T23:06:25.303Z,100230.89
2019-02-06T23:08:56.452Z,100223.76
2019-02-06T23:11:27.302Z,100225.50
2019-02-06T23:13:58.402Z,100220.42
2019-02-06T23:16:29.240Z,100223.03
2019-02-06T23:19:00.334Z,100227.14
2019-02-06T23:21:31.426Z,100224.97
2019-02-06T23:24:02.509Z,100217.22
2019-02-06T23:26:33.491Z,100210.05
2019-02-06T23:29:04.861Z,100201.62
2019-02-06T23:31:35.963Z,100191.66
2019-02-06T23:34:06.891Z,100186.23
2019-02-06T23:36:38.052Z,100179.11
2019-02-06T23:39:17.393Z,100169.41
2019-02-06T23:41:48.234Z,100159.74
2019-02-06T23:44:28.666Z,100157.10
2019-02-06T23:46:55.958Z,100159.94
2019-02-06T23:49:26.082Z,100156.92
2019-02-06T23:51:57.071Z,100147.02
2019-02-06T23:54:28.351Z,100145.12
2019-02-06T23:56:59.259Z,100144.50
2019-02-06T23:59:30.369Z,100135.61
